New Richmond, Wisconsin
Current Conditions -  °F | °C
As of 7:15 AM on Friday 31 Oct 2014 (Local Time) from KRNH Reporting Station
Broken Clouds Broken Clouds  
Wind Chill: 19°   Ceiling: 3400
Heat Index: 27°   Visibility: 10mi
Dew Point: 17°   Wind: 8mph
Humidity: 66%   Direction: 360°N
Pressure: 30.47"   Gusts: NA
Location:  45.12°N, 92.54°W
Report Text: KRNH 311215Z AUTO 36007KT 10SM BKN034 M03/M08 A3047 RMK AO2 T10271082
Loading
Personal Weather Stations






























Interactive Weather Map New forecast layout! Learn more

10-Day Weather Forecast

Advertisements
Track Severe Weather on mobile